Time;durP1;ratioP1;P1;durP2;ratioP2;P2;SDS_P1;SDS_P2;PMS_P1;PMS_P2;Temp;Humidity;BMP_temperature;BMP_pressure;BME280_temperature;BME280_humidity;BME280_pressure;Samples;Min_cycle;Max_cycle;Signal;HPM_P1;HPM_P2
2022/09/06 00:00:02;;;;;;;1.50;1.40;;;;;;;10.21;79.14;99822.63;5082721;28;20039;-64
2022/09/06 00:02:33;;;;;;;2.10;1.23;;;;;;;10.28;79.06;99822.47;5082946;28;20063;-63
2022/09/06 00:04:59;;;;;;;3.15;1.60;;;;;;;10.33;78.94;99825.84;5086434;28;20202;-63
2022/09/06 00:07:25;;;;;;;2.83;1.20;;;;;;;10.24;78.75;99819.97;5086279;28;20100;-63
2022/09/06 00:09:50;;;;;;;2.53;1.30;;;;;;;10.23;79.01;99821.69;5086054;28;20096;-63
2022/09/06 00:12:16;;;;;;;2.17;1.40;;;;;;;10.22;79.36;99819.13;5086159;28;20063;-63
2022/09/06 00:14:42;;;;;;;1.33;1.23;;;;;;;10.15;79.30;99823.59;5085792;28;20070;-64
2022/09/06 00:17:08;;;;;;;1.73;1.52;;;;;;;10.10;80.98;99815.03;5086006;28;20059;-64
2022/09/06 00:19:33;;;;;;;1.83;1.10;;;;;;;10.11;80.47;99816.75;5085242;28;20024;-65
2022/09/06 00:21:59;;;;;;;1.30;1.20;;;;;;;10.08;80.32;99812.47;5086103;28;20106;-63
2022/09/06 00:24:25;;;;;;;3.05;1.30;;;;;;;10.11;80.51;99814.16;5086216;28;20086;-63
2022/09/06 00:26:50;;;;;;;2.28;1.40;;;;;;;10.15;80.20;99814.06;5085884;28;20031;-62
2022/09/06 00:29:16;;;;;;;1.48;1.38;;;;;;;10.18;79.04;99811.44;5085858;28;20229;-63
2022/09/06 00:31:41;;;;;;;1.33;1.23;;;;;;;10.15;79.43;99816.66;5086189;28;20024;-65
2022/09/06 00:34:07;;;;;;;1.55;1.45;;;;;;;10.15;80.06;99813.25;5086026;28;20036;-64
2022/09/06 00:36:33;;;;;;;3.33;1.35;;;;;;;10.10;79.91;99815.03;5098169;28;20039;-63
2022/09/06 00:38:58;;;;;;;1.60;1.50;;;;;;;10.12;79.37;99805.53;5098349;28;20333;-64
2022/09/06 00:41:24;;;;;;;1.50;1.40;;;;;;;10.05;79.30;99806.50;5085595;28;20040;-63
2022/09/06 00:43:49;;;;;;;1.20;1.10;;;;;;;10.05;79.42;99809.06;5085679;28;20039;-63
2022/09/06 00:46:21;;;;;;;2.05;1.23;;;;;;;9.68;79.85;99757.09;5068242;28;20252;-63
2022/09/06 00:48:51;;;;;;;1.98;1.20;;;;;;;9.70;79.03;99759.66;5085534;28;20028;-63
2022/09/06 00:51:19;;;;;;;1.95;1.20;;;;;;;10.05;78.84;99807.38;5095770;28;20221;-63
2022/09/06 00:53:45;;;;;;;1.45;1.33;;;;;;;9.98;79.54;99809.19;5105729;28;20027;-63
2022/09/06 00:56:11;;;;;;;1.30;1.20;;;;;;;10.03;79.79;99822.03;5089391;28;20024;-63
2022/09/06 00:58:37;;;;;;;2.13;1.20;;;;;;;10.06;79.78;99815.97;5105749;28;20137;-63
2022/09/06 01:01:03;;;;;;;2.10;1.30;;;;;;;10.04;79.26;99817.75;5088872;28;20058;-65
2022/09/06 01:03:29;;;;;;;1.63;1.40;;;;;;;10.08;78.99;99817.66;5085362;28;20025;-66
2022/09/06 01:06:17;;;;;;;2.53;1.33;;;;;;;9.98;79.32;99810.94;5084938;28;20025;-66
2022/09/06 01:08:49;;;;;;;2.50;1.40;;;;;;;10.01;79.49;99805.72;5085515;28;20059;-66
2022/09/06 01:11:39;;;;;;;3.60;1.85;;;;;;;9.99;78.46;99807.44;5085073;28;20032;-66
2022/09/06 01:14:26;;;;;;;1.77;1.30;;;;;;;9.92;79.52;99811.03;5083746;28;20036;-66
2022/09/06 01:17:27;;;;;;;2.38;1.15;;;;;;;9.88;78.84;99805.06;5065143;28;20222;-65
2022/09/06 01:20:18;;;;;;;2.38;1.40;;;;;;;9.92;79.34;99811.03;5077288;28;20031;-64
2022/09/06 01:22:55;;;;;;;2.42;1.00;;;;;;;9.83;78.73;99805.16;5100751;28;20028;-64
2022/09/06 01:25:45;;;;;;;1.85;1.10;;;;;;;9.87;79.27;99810.25;5084781;28;20028;-64
2022/09/06 01:28:36;;;;;;;1.83;1.40;;;;;;;9.79;78.74;99803.47;5084881;28;20035;-63
2022/09/06 01:31:05;;;;;;;1.80;1.58;;;;;;;9.82;79.49;99808.59;5084683;28;20085;-62
2022/09/06 01:33:40;;;;;;;1.25;1.00;;;;;;;9.87;79.16;99810.25;5084769;28;20037;-63
2022/09/06 01:36:15;;;;;;;1.20;1.02;;;;;;;9.56;79.45;99754.69;5084505;28;20062;-63
2022/09/06 01:38:41;;;;;;;2.33;1.20;;;;;;;9.88;78.46;99807.66;5084532;28;20038;-63
2022/09/06 01:41:07;;;;;;;0.90;0.90;;;;;;;9.83;79.57;99810.31;5084430;28;20025;-64
2022/09/06 01:43:38;;;;;;;3.17;1.00;;;;;;;9.77;79.22;99792.28;5064593;28;20037;-63
2022/09/06 01:46:19;;;;;;;1.40;1.00;;;;;;;9.94;78.11;99817.88;5080441;28;20025;-63
2022/09/06 01:49:23;;;;;;;1.08;1.02;;;;;;;9.90;78.10;99815.38;5084409;28;20339;-64
2022/09/06 01:51:56;;;;;;;1.13;1.00;;;;;;;9.90;78.41;99829.16;5082707;28;20273;-64
2022/09/06 01:54:37;;;;;;;3.13;1.17;;;;;;;9.91;79.22;99819.69;5084431;28;20032;-64
2022/09/06 01:57:11;;;;;;;1.40;1.20;;;;;;;9.91;78.05;99822.28;5082133;28;20017;-64
2022/09/06 01:59:55;;;;;;;2.72;1.20;;;;;;;9.94;78.77;99814.44;5075852;28;20085;-65
2022/09/06 02:02:54;;;;;;;1.75;1.20;;;;;;;9.57;77.36;99761.59;5086346;28;20058;-64
2022/09/06 02:05:28;;;;;;;1.08;1.00;;;;;;;9.90;78.12;99815.38;5097731;28;20051;-65
2022/09/06 02:07:59;;;;;;;1.95;1.40;;;;;;;9.76;78.06;99806.13;5084079;28;20025;-65
2022/09/06 02:10:36;;;;;;;1.33;1.23;;;;;;;9.81;78.16;99814.66;5084031;28;20217;-65
2022/09/06 02:13:06;;;;;;;2.92;1.40;;;;;;;9.51;78.05;99764.28;5100318;28;20028;-65
2022/09/06 02:15:35;;;;;;;3.17;1.33;;;;;;;9.64;78.05;99789.06;5069586;28;20074;-65
2022/09/06 02:18:23;;;;;;;1.83;1.10;;;;;;;9.79;77.51;99815.53;5075364;28;20376;-64
2022/09/06 02:20:52;;;;;;;1.50;1.30;;;;;;;9.78;77.57;99803.50;5089174;28;20095;-64
2022/09/06 02:23:22;;;;;;;1.20;1.10;;;;;;;9.48;77.92;99759.16;5086943;28;20029;-64
2022/09/06 02:25:53;;;;;;;1.80;1.20;;;;;;;9.60;76.98;99781.38;5103215;28;20079;-64
2022/09/06 02:28:19;;;;;;;1.20;1.10;;;;;;;9.78;76.81;99824.19;5085089;28;20098;-65
2022/09/06 02:30:49;;;;;;;1.20;1.10;;;;;;;9.66;76.47;99794.19;5083667;28;20071;-64
2022/09/06 02:33:19;;;;;;;1.55;1.20;;;;;;;9.36;76.88;99769.69;5109381;28;20039;-61
2022/09/06 02:35:48;;;;;;;1.20;1.10;;;;;;;9.35;76.56;99763.66;5085449;28;20058;-62
2022/09/06 02:38:14;;;;;;;1.45;1.15;;;;;;;9.70;76.23;99821.72;5083474;28;20028;-61
2022/09/06 02:40:42;;;;;;;1.55;1.30;;;;;;;9.65;76.75;99816.63;5083502;28;20024;-64
2022/09/06 02:43:08;;;;;;;1.50;1.20;;;;;;;9.70;76.49;99823.47;5083472;28;20028;-64
2022/09/06 02:45:34;;;;;;;1.48;1.38;;;;;;;9.68;76.93;99823.50;5083415;28;20036;-63
2022/09/06 02:47:59;;;;;;;2.65;1.60;;;;;;;9.64;77.52;99824.41;5083448;28;20092;-63
2022/09/06 02:50:25;;;;;;;1.42;1.33;;;;;;;9.66;76.64;99828.69;5086029;28;20040;-64
2022/09/06 02:53:20;;;;;;;2.67;1.50;;;;;;;9.57;76.99;99828.81;5103676;28;20043;-64
2022/09/06 02:55:47;;;;;;;1.90;1.42;;;;;;;9.64;77.13;99834.75;5074872;28;20217;-63
2022/09/06 02:58:14;;;;;;;1.50;1.40;;;;;;;9.66;77.09;99825.22;5082918;28;20107;-64
2022/09/06 03:00:40;;;;;;;1.50;1.40;;;;;;;9.63;77.53;99818.41;5083505;28;20063;-64
2022/09/06 03:03:06;;;;;;;1.67;1.58;;;;;;;9.60;78.23;99805.50;5083516;28;20343;-64
2022/09/06 03:05:32;;;;;;;2.70;1.70;;;;;;;9.64;78.22;99811.47;5086823;28;20321;-64
2022/09/06 03:07:58;;;;;;;3.17;1.92;;;;;;;9.69;78.34;99825.22;5103500;28;20073;-64
2022/09/06 03:10:25;;;;;;;1.95;1.85;;;;;;;9.68;78.27;99826.06;5084210;28;20134;-64
2022/09/06 03:12:51;;;;;;;2.38;1.90;;;;;;;9.72;77.98;99826.88;5082953;28;20020;-63
2022/09/06 03:15:17;;;;;;;2.78;2.30;;;;;;;9.79;77.76;99826.75;5082961;28;20028;-64
2022/09/06 03:17:43;;;;;;;3.17;1.90;;;;;;;9.81;77.54;99827.56;5087909;28;20020;-64
2022/09/06 03:20:10;;;;;;;2.20;1.92;;;;;;;9.72;77.80;99827.75;5088430;28;20024;-62
2022/09/06 03:22:38;;;;;;;4.13;1.77;;;;;;;9.73;76.71;99829.44;5083143;28;20026;-62
2022/09/06 03:25:08;;;;;;;2.08;1.88;;;;;;;9.77;77.97;99827.66;5083051;28;20017;-63
2022/09/06 03:27:34;;;;;;;4.80;1.80;;;;;;;9.80;77.86;99835.38;5083259;28;20032;-63
2022/09/06 03:29:59;;;;;;;3.13;1.95;;;;;;;9.77;77.92;99831.09;5082751;28;20111;-62
2022/09/06 03:32:25;;;;;;;1.88;1.77;;;;;;;9.82;76.65;99833.63;5085189;28;20024;-62
2022/09/06 03:34:51;;;;;;;2.15;1.90;;;;;;;9.87;77.48;99838.72;5099766;28;20027;-63
2022/09/06 03:37:18;;;;;;;2.10;1.90;;;;;;;9.73;76.77;99821.66;5083990;28;20028;-63
2022/09/06 03:39:43;;;;;;;2.65;1.90;;;;;;;9.83;77.66;99836.19;5086296;28;20028;-64
2022/09/06 03:42:09;;;;;;;2.95;2.05;;;;;;;9.84;76.78;99835.28;5086365;28;20020;-63
2022/09/06 03:44:35;;;;;;;2.40;2.03;;;;;;;9.72;77.79;99835.50;5086679;28;20313;-64
2022/09/06 03:47:00;;;;;;;2.60;2.40;;;;;;;9.78;76.94;99827.63;5086351;28;20032;-63
2022/09/06 03:49:26;;;;;;;2.30;2.10;;;;;;;9.75;77.34;99831.97;5086853;28;20052;-63
2022/09/06 03:51:51;;;;;;;2.53;1.95;;;;;;;9.73;76.77;99832.00;5086445;28;20040;-63
2022/09/06 03:54:17;;;;;;;2.60;2.40;;;;;;;9.90;77.09;99844.69;5085999;28;20088;-63
2022/09/06 03:56:43;;;;;;;2.40;2.20;;;;;;;9.85;77.15;99842.16;5098638;28;20086;-63
2022/09/06 03:59:08;;;;;;;2.00;1.80;;;;;;;9.93;76.57;99846.38;5081421;28;20406;-63
2022/09/06 04:01:34;;;;;;;3.38;2.20;;;;;;;9.87;76.20;99841.31;5085853;28;20268;-62
2022/09/06 04:04:00;;;;;;;5.38;2.15;;;;;;;9.89;77.13;99839.53;5086313;28;20221;-63
2022/09/06 04:06:26;;;;;;;2.33;1.98;;;;;;;9.90;77.44;99843.84;5086282;28;20024;-63
2022/09/06 04:08:53;;;;;;;4.10;2.20;;;;;;;9.88;77.16;99843.03;5086146;28;20039;-65
2022/09/06 04:11:19;;;;;;;2.60;1.80;;;;;;;9.91;76.59;99838.63;5086075;28;20024;-65
2022/09/06 04:13:44;;;;;;;2.53;2.10;;;;;;;9.81;76.71;99843.09;5086123;28;20032;-66
2022/09/06 04:16:10;;;;;;;3.50;1.88;;;;;;;9.89;76.70;99843.00;5086029;28;20025;-67
2022/09/06 04:18:36;;;;;;;2.85;2.05;;;;;;;9.86;76.91;99845.59;5086029;28;20208;-68
2022/09/06 04:21:01;;;;;;;1.95;1.48;;;;;;;9.92;76.69;99840.34;5092731;28;20024;-68
2022/09/06 04:23:28;;;;;;;3.85;1.60;;;;;;;9.86;76.18;99843.00;5102959;28;20043;-68
2022/09/06 04:25:56;;;;;;;2.13;1.55;;;;;;;9.92;75.50;99842.94;5085954;28;20066;-67
2022/09/06 04:28:22;;;;;;;1.80;1.50;;;;;;;9.97;76.05;99842.84;5103031;28;20020;-67
2022/09/06 04:30:59;;;;;;;1.50;1.40;;;;;;;9.70;75.30;99793.28;5092648;28;20352;-68
2022/09/06 04:33:26;;;;;;;1.73;1.40;;;;;;;9.96;75.67;99847.19;5085719;28;20093;-68
2022/09/06 04:35:53;;;;;;;3.38;1.50;;;;;;;9.84;76.22;99839.63;5085580;28;20040;-68
2022/09/06 04:38:19;;;;;;;1.92;1.20;;;;;;;9.92;75.67;99845.53;5085612;28;20339;-68
2022/09/06 04:40:44;;;;;;;2.33;1.35;;;;;;;9.96;75.71;99844.59;5085695;28;20029;-67
2022/09/06 04:43:10;;;;;;;2.72;1.70;;;;;;;10.01;75.33;99841.94;5102015;28;20024;-67
2022/09/06 04:45:35;;;;;;;1.48;1.20;;;;;;;10.06;74.77;99840.13;5094190;28;20028;-68
2022/09/06 04:48:02;;;;;;;1.52;1.23;;;;;;;10.14;75.00;99848.59;5085427;28;20338;-67
2022/09/06 04:50:27;;;;;;;2.78;1.13;;;;;;;10.06;74.71;99844.44;5084503;28;20229;-65
2022/09/06 04:52:53;;;;;;;1.65;1.00;;;;;;;10.17;74.40;99845.94;5079926;28;20064;-68
2022/09/06 04:55:18;;;;;;;1.88;1.15;;;;;;;10.22;75.03;99850.19;5082991;28;20054;-66
2022/09/06 04:57:44;;;;;;;1.80;1.02;;;;;;;10.17;74.81;99837.34;5084586;28;20048;-66
2022/09/06 05:00:10;;;;;;;3.63;1.02;;;;;;;10.17;75.15;99843.34;5092919;28;20040;-66
2022/09/06 05:02:35;;;;;;;2.25;1.10;;;;;;;10.15;74.45;99845.13;5077609;28;20073;-67
2022/09/06 05:05:01;;;;;;;1.15;0.90;;;;;;;10.05;74.34;99838.41;5085278;28;20313;-67
2022/09/06 05:07:26;;;;;;;1.67;1.00;;;;;;;10.21;74.18;99843.34;5089570;28;20021;-67
2022/09/06 05:09:52;;;;;;;1.50;1.00;;;;;;;10.25;74.30;99845.84;5084629;28;20074;-67
2022/09/06 05:12:18;;;;;;;1.92;0.90;;;;;;;10.10;74.09;99836.59;5084819;28;20044;-67
2022/09/06 05:14:43;;;;;;;0.80;0.80;;;;;;;10.24;73.64;99833.75;5087982;28;20051;-66
2022/09/06 05:17:09;;;;;;;0.90;0.85;;;;;;;10.24;73.22;99833.75;5105700;28;20027;-67
2022/09/06 05:19:34;;;;;;;1.25;1.10;;;;;;;10.31;73.77;99825.00;5085269;28;20213;-68
2022/09/06 05:22:00;;;;;;;0.80;0.80;;;;;;;10.29;73.56;99824.19;5085035;28;20032;-66
2022/09/06 05:24:26;;;;;;;1.58;0.80;;;;;;;10.30;73.42;99833.66;5087222;28;20016;-68
2022/09/06 05:26:51;;;;;;;4.28;1.40;;;;;;;10.31;73.05;99837.94;5084186;28;20031;-67
2022/09/06 05:29:17;;;;;;;2.55;1.67;;;;;;;10.22;73.28;99839.84;5084123;28;20028;-67
2022/09/06 05:31:42;;;;;;;3.13;1.45;;;;;;;10.21;72.62;99828.66;5083608;28;20074;-67
2022/09/06 05:34:09;;;;;;;2.30;1.10;;;;;;;9.97;72.43;99799.72;5083637;28;20024;-67
2022/09/06 05:36:35;;;;;;;1.67;1.20;;;;;;;10.14;72.54;99840.81;5083947;28;20033;-67
2022/09/06 05:39:00;;;;;;;1.83;0.93;;;;;;;10.23;73.30;99839.81;5083900;28;20066;-66
2022/09/06 05:41:26;;;;;;;0.98;0.85;;;;;;;10.27;71.68;99841.47;5083978;28;20021;-67
2022/09/06 05:43:52;;;;;;;3.28;1.00;;;;;;;10.30;71.79;99844.03;5084449;28;20099;-68
2022/09/06 05:46:18;;;;;;;0.98;0.90;;;;;;;10.34;72.33;99834.50;5092595;28;20024;-69
2022/09/06 05:48:50;;;;;;;2.83;1.05;;;;;;;10.36;71.71;99843.94;5084130;28;20021;-67
2022/09/06 05:51:15;;;;;;;1.25;1.15;;;;;;;10.39;72.49;99837.84;5083173;28;20032;-66
2022/09/06 05:53:44;;;;;;;5.40;1.63;;;;;;;10.36;71.21;99837.88;5077217;28;20025;-67
2022/09/06 05:56:12;;;;;;;2.65;1.67;;;;;;;10.16;71.75;99838.22;5079798;28;20036;-67
2022/09/06 05:58:38;;;;;;;3.28;1.40;;;;;;;10.27;72.04;99841.47;5099423;28;20041;-68
2022/09/06 06:01:15;;;;;;;2.08;1.48;;;;;;;10.39;71.04;99839.56;5082879;28;20043;-68
2022/09/06 06:03:42;;;;;;;3.60;1.70;;;;;;;10.18;71.04;99844.22;5083987;28;20217;-67
2022/09/06 06:06:08;;;;;;;2.63;1.60;;;;;;;10.24;71.54;99830.34;5083797;28;20017;-67
2022/09/06 06:08:34;;;;;;;2.95;2.10;;;;;;;10.08;71.75;99828.00;5084042;28;20058;-67
2022/09/06 06:11:01;;;;;;;2.47;2.05;;;;;;;10.34;71.64;99847.44;5084061;28;20332;-67
2022/09/06 06:13:33;;;;;;;7.00;2.55;;;;;;;10.39;71.09;99843.03;5083617;28;20024;-68
2022/09/06 06:16:01;;;;;;;3.80;2.90;;;;;;;10.42;71.08;99839.50;5083159;28;20332;-66
2022/09/06 06:18:26;;;;;;;3.72;2.70;;;;;;;10.35;70.01;99841.38;5084067;28;20028;-67
2022/09/06 06:20:52;;;;;;;4.43;2.90;;;;;;;10.32;71.27;99844.00;5083336;28;20059;-68
2022/09/06 06:23:17;;;;;;;2.92;2.55;;;;;;;10.39;71.34;99848.22;5083886;28;20032;-67
2022/09/06 06:25:43;;;;;;;4.65;3.42;;;;;;;10.27;72.39;99853.56;5082466;28;20357;-66
2022/09/06 06:28:08;;;;;;;5.78;3.60;;;;;;;10.15;73.05;99844.28;5083575;28;20036;-67
2022/09/06 06:30:34;;;;;;;5.75;3.42;;;;;;;10.21;73.56;99857.13;5094109;28;20059;-67
2022/09/06 06:33:01;;;;;;;4.60;3.38;;;;;;;10.26;74.75;99857.03;5098442;28;20216;-68
2022/09/06 06:35:26;;;;;;;5.20;3.60;;;;;;;10.25;74.49;99857.94;5095313;28;20039;-67
2022/09/06 06:37:52;;;;;;;7.13;4.25;;;;;;;10.34;74.40;99855.19;5103886;28;20024;-66
2022/09/06 06:40:18;;;;;;;4.40;4.00;;;;;;;10.38;75.97;99856.84;5086851;28;20024;-67
2022/09/06 06:42:43;;;;;;;5.68;3.97;;;;;;;10.28;75.21;99863.06;5083103;28;20051;-66
2022/09/06 06:45:09;;;;;;;4.47;4.07;;;;;;;10.27;76.88;99858.75;5083195;28;20083;-65
2022/09/06 06:47:35;;;;;;;3.45;3.03;;;;;;;10.29;76.73;99857.84;5082730;28;20024;-64
2022/09/06 06:50:00;;;;;;;5.30;3.20;;;;;;;10.35;74.91;99855.16;5083127;28;20074;-64
2022/09/06 06:52:26;;;;;;;4.78;3.50;;;;;;;10.28;75.12;99856.13;5100913;28;20106;-68
2022/09/06 06:54:51;;;;;;;4.43;3.15;;;;;;;10.32;75.45;99851.75;5098328;28;20024;-66
2022/09/06 06:57:17;;;;;;;3.55;3.05;;;;;;;10.39;75.48;99857.69;5091018;28;20062;-67
2022/09/06 06:59:42;;;;;;;5.45;3.97;;;;;;;10.43;76.52;99849.00;5091900;28;20044;-67
2022/09/06 07:02:08;;;;;;;3.25;2.95;;;;;;;10.35;74.93;99844.81;5083063;28;20044;-67
2022/09/06 07:04:34;;;;;;;5.57;3.22;;;;;;;10.30;74.79;99849.22;5098830;28;20408;-67
2022/09/06 07:07:00;;;;;;;4.57;3.15;;;;;;;10.38;75.97;99854.25;5096971;28;20020;-67
2022/09/06 07:09:26;;;;;;;5.05;3.30;;;;;;;10.47;75.61;99842.88;5094381;28;20024;-68
2022/09/06 07:11:51;;;;;;;4.13;2.70;;;;;;;10.45;74.57;99842.06;5084205;28;20016;-65
2022/09/06 07:14:17;;;;;;;3.88;2.92;;;;;;;10.59;73.26;99841.78;5089641;28;20066;-66
2022/09/06 07:16:43;;;;;;;5.47;2.90;;;;;;;10.60;73.89;99826.22;5109442;28;20024;-68
2022/09/06 07:19:09;;;;;;;4.55;3.28;;;;;;;10.76;75.00;99844.06;5104663;28;20095;-66
2022/09/06 07:21:34;;;;;;;3.47;3.05;;;;;;;10.70;73.43;99842.44;5089623;28;20115;-67
2022/09/06 07:24:00;;;;;;;3.50;2.50;;;;;;;10.81;73.74;99840.50;5089638;28;20428;-68
2022/09/06 07:26:28;;;;;;;4.55;3.30;;;;;;;10.52;73.23;99787.53;5089539;28;20024;-68
2022/09/06 07:28:59;;;;;;;4.85;3.22;;;;;;;10.38;72.33;99781.78;5089501;28;20030;-67
2022/09/06 07:31:27;;;;;;;4.00;3.30;;;;;;;10.78;71.96;99830.19;5089266;28;20020;-66
2022/09/06 07:33:53;;;;;;;4.28;3.47;;;;;;;10.90;71.85;99823.91;5087508;28;20036;-68
2022/09/06 07:36:19;;;;;;;3.90;3.60;;;;;;;10.81;70.07;99824.94;5090669;28;20024;-68
2022/09/06 07:38:48;;;;;;;4.45;3.22;;;;;;;10.97;68.88;99832.41;5088990;28;20012;-68
2022/09/06 07:41:16;;;;;;;3.55;3.22;;;;;;;10.92;69.68;99834.25;5089138;28;20043;-67
2022/09/06 07:43:41;;;;;;;3.50;3.20;;;;;;;10.83;70.03;99815.44;5091783;28;20025;-68
2022/09/06 07:46:09;;;;;;;4.78;3.83;;;;;;;10.89;71.06;99824.81;5083959;28;20032;-68
2022/09/06 07:48:36;;;;;;;4.70;3.55;;;;;;;10.56;71.26;99777.13;5085469;28;20031;-68
2022/09/06 07:51:22;;;;;;;4.72;3.50;;;;;;;10.94;71.16;99830.72;5089126;28;20028;-68
2022/09/06 07:53:54;;;;;;;10.07;8.25;;;;;;;10.55;69.89;99780.59;5089318;28;20040;-67
2022/09/06 07:56:21;;;;;;;4.47;3.28;;;;;;;11.00;69.70;99825.44;5089452;28;20051;-68
2022/09/06 07:58:48;;;;;;;7.40;3.60;;;;;;;11.12;70.63;99820.88;5088862;28;20101;-67
2022/09/06 08:01:37;;;;;;;4.28;2.65;;;;;;;11.11;69.36;99825.19;5089110;28;20070;-67
2022/09/06 08:04:04;;;;;;;5.57;3.35;;;;;;;10.86;70.08;99833.50;5088962;28;20198;-67
2022/09/06 08:06:33;;;;;;;5.10;2.63;;;;;;;10.64;70.75;99786.44;5088588;28;20047;-68
2022/09/06 08:08:59;;;;;;;4.28;2.75;;;;;;;10.75;71.08;99795.75;5089013;28;20055;-68
2022/09/06 08:11:28;;;;;;;2.42;2.22;;;;;;;10.47;72.02;99789.34;5086186;28;20356;-68
2022/09/06 08:13:55;;;;;;;3.63;1.75;;;;;;;10.79;72.67;99837.09;5088432;28;20228;-67
2022/09/06 08:16:22;;;;;;;3.05;2.10;;;;;;;10.74;73.95;99836.31;5087643;28;20052;-66
2022/09/06 08:18:53;;;;;;;2.63;1.70;;;;;;;10.85;74.33;99839.56;5088080;28;20036;-65
2022/09/06 08:21:22;;;;;;;4.18;1.88;;;;;;;10.88;74.20;99836.91;5090941;28;20024;-65
2022/09/06 08:23:55;;;;;;;2.20;1.75;;;;;;;10.85;73.84;99823.16;5084522;28;20059;-65
2022/09/06 08:26:22;;;;;;;3.20;2.50;;;;;;;10.62;75.61;99777.00;5085396;28;20329;-63
2022/09/06 08:28:53;;;;;;;2.90;1.77;;;;;;;10.68;74.81;99757.00;5076793;28;20132;-63
2022/09/06 08:31:19;;;;;;;2.95;2.05;;;;;;;11.17;74.71;99822.50;5080738;28;20028;-64
2022/09/06 08:33:46;;;;;;;2.78;1.92;;;;;;;11.33;74.09;99811.75;5078218;28;20317;-63
2022/09/06 08:36:13;;;;;;;2.05;1.80;;;;;;;11.40;73.48;99808.13;5082448;28;20032;-62
2022/09/06 08:38:39;;;;;;;3.70;1.65;;;;;;;11.66;71.32;99809.31;5084356;28;20092;-64
2022/09/06 08:41:20;;;;;;;3.60;1.98;;;;;;;11.87;70.90;99810.50;5083845;28;20389;-66
2022/09/06 08:44:07;;;;;;;8.95;2.65;;;;;;;11.66;69.59;99763.44;5083595;28;20036;-67
2022/09/06 08:46:46;;;;;;;4.50;2.42;;;;;;;11.44;70.44;99723.34;5083354;28;20031;-67
2022/09/06 08:49:11;;;;;;;4.88;2.30;;;;;;;11.79;69.85;99791.69;5085163;28;20025;-66
2022/09/06 08:52:07;;;;;;;4.57;2.28;;;;;;;11.50;69.69;99785.44;5085107;28;20304;-67
2022/09/06 08:54:47;;;;;;;4.47;2.00;;;;;;;11.32;71.06;99737.47;5082167;28;20107;-67
2022/09/06 08:57:30;;;;;;;4.60;2.10;;;;;;;11.59;70.21;99798.22;5084454;28;20202;-68
2022/09/06 09:00:00;;;;;;;5.30;1.90;;;;;;;11.18;70.65;99746.41;5076633;28;20238;-66
2022/09/06 09:02:54;;;;;;;1.95;1.60;;;;;;;11.45;69.59;99793.34;5084703;28;20063;-67
2022/09/06 09:05:37;;;;;;;3.08;1.50;;;;;;;11.05;71.41;99734.63;5084693;28;20028;-66
2022/09/06 09:08:21;;;;;;;1.95;1.40;;;;;;;11.38;71.21;99791.78;5083018;28;20028;-67
2022/09/06 09:10:56;;;;;;;2.40;1.75;;;;;;;11.18;70.32;99782.69;5083691;28;20029;-66
2022/09/06 09:13:37;;;;;;;6.10;2.00;;;;;;;11.26;70.28;99784.28;5084643;28;20091;-65
2022/09/06 09:16:04;;;;;;;3.35;1.92;;;;;;;11.15;70.48;99790.56;5099819;28;20029;-66
2022/09/06 09:18:37;;;;;;;4.30;1.90;;;;;;;11.14;69.52;99755.16;5084237;28;20034;-68
2022/09/06 09:21:03;;;;;;;5.13;2.22;;;;;;;11.32;69.47;99789.34;5082690;28;20059;-67
2022/09/06 09:23:29;;;;;;;6.25;1.98;;;;;;;11.28;69.33;99790.28;5084193;28;20020;-66
2022/09/06 09:26:01;;;;;;;3.35;2.10;;;;;;;10.95;71.21;99733.16;5085499;28;20017;-67
2022/09/06 09:28:26;;;;;;;1.60;1.50;;;;;;;11.30;69.99;99786.78;5082523;28;20024;-68
2022/09/06 09:30:54;;;;;;;2.25;1.77;;;;;;;11.15;68.88;99798.31;5078902;28;20090;-65
2022/09/06 09:33:32;;;;;;;2.50;1.85;;;;;;;10.76;68.72;99733.53;5083232;28;20102;-65
2022/09/06 09:36:01;;;;;;;2.30;1.83;;;;;;;10.70;68.35;99729.34;5081240;28;20035;-64
2022/09/06 09:38:29;;;;;;;1.83;1.65;;;;;;;10.92;69.47;99748.75;5082435;28;20051;-68
2022/09/06 09:40:59;;;;;;;1.77;1.65;;;;;;;10.95;68.99;99731.38;5116389;28;20099;-67
2022/09/06 09:43:37;;;;;;;6.20;2.05;;;;;;;10.84;69.49;99741.13;5084582;28;20309;-64
2022/09/06 09:46:21;;;;;;;3.50;1.80;;;;;;;11.26;69.81;99784.28;5084232;28;20023;-67
2022/09/06 09:49:07;;;;;;;4.50;2.10;;;;;;;11.26;69.61;99784.28;5082554;28;20028;-65
2022/09/06 09:51:44;;;;;;;2.03;1.45;;;;;;;10.89;69.85;99739.31;5083904;28;20017;-64
2022/09/06 09:54:12;;;;;;;2.03;1.65;;;;;;;10.68;71.34;99733.69;5084284;28;20325;-64
2022/09/06 09:56:51;;;;;;;1.52;1.40;;;;;;;11.21;71.95;99785.22;5083349;28;20229;-64
2022/09/06 09:59:19;;;;;;;4.22;1.48;;;;;;;10.98;72.32;99735.66;5079840;28;20052;-64
2022/09/06 10:01:45;;;;;;;1.67;1.50;;;;;;;11.43;71.63;99776.97;5083589;28;20041;-63
2022/09/06 10:04:16;;;;;;;1.75;1.40;;;;;;;11.14;71.03;99730.97;5083458;28;20248;-64
2022/09/06 10:06:42;;;;;;;3.10;1.60;;;;;;;11.59;71.58;99782.66;5083571;28;20060;-64
2022/09/06 10:09:19;;;;;;;2.13;1.70;;;;;;;11.60;70.80;99773.13;5083802;28;20033;-64
2022/09/06 10:11:55;;;;;;;2.22;1.52;;;;;;;11.50;70.39;99781.13;5083248;28;20062;-65
2022/09/06 10:14:26;;;;;;;2.47;1.40;;;;;;;11.50;70.06;99770.75;5083524;28;20066;-64
2022/09/06 10:16:52;;;;;;;1.77;1.67;;;;;;;11.53;70.42;99781.06;5083331;28;20020;-65
2022/09/06 10:19:28;;;;;;;1.75;1.60;;;;;;;11.50;70.69;99777.66;5083627;28;20037;-65
2022/09/06 10:22:00;;;;;;;2.10;1.45;;;;;;;11.57;69.68;99774.91;5084253;28;20032;-63
2022/09/06 10:24:50;;;;;;;1.38;1.25;;;;;;;11.54;69.60;99785.34;5074202;28;20082;-63
2022/09/06 10:27:24;;;;;;;1.38;1.27;;;;;;;11.22;68.64;99729.91;5082917;28;20340;-64
2022/09/06 10:30:00;;;;;;;2.28;1.35;;;;;;;11.30;68.56;99734.94;5082970;28;20341;-63
2022/09/06 10:32:41;;;;;;;2.03;1.60;;;;;;;11.63;69.39;99786.88;5083691;28;20059;-64
2022/09/06 10:35:35;;;;;;;2.88;1.30;;;;;;;11.72;68.69;99784.03;5070707;28;20052;-64
2022/09/06 10:38:19;;;;;;;2.63;1.60;;;;;;;11.78;68.87;99782.19;5080328;28;20100;-64
2022/09/06 10:41:05;;;;;;;1.65;1.55;;;;;;;11.70;68.53;99772.00;5082106;28;20316;-64
2022/09/06 10:43:44;;;;;;;5.30;1.88;;;;;;;11.63;68.76;99776.50;5081390;28;20036;-64
2022/09/06 10:46:23;;;;;;;3.38;1.75;;;;;;;11.42;69.20;99718.22;5080384;28;20032;-64
2022/09/06 10:48:49;;;;;;;1.92;1.50;;;;;;;11.81;69.44;99769.97;5082064;28;20111;-63
2022/09/06 10:51:42;;;;;;;2.05;1.50;;;;;;;11.87;69.99;99772.44;5081633;28;20472;-64
2022/09/06 10:54:13;;;;;;;2.55;1.70;;;;;;;11.49;68.99;99717.16;5070909;28;20036;-64
2022/09/06 10:56:48;;;;;;;5.18;1.42;;;;;;;11.65;69.03;99761.72;5083877;28;20095;-64
2022/09/06 10:59:25;;;;;;;2.15;1.80;;;;;;;11.75;68.87;99776.19;5096260;28;20373;-64
2022/09/06 11:02:03;;;;;;;4.43;1.70;;;;;;;11.73;69.31;99774.53;5083130;28;20312;-64
2022/09/06 11:04:43;;;;;;;2.65;1.73;;;;;;;11.27;68.43;99719.41;5083365;28;20077;-64
2022/09/06 11:07:29;;;;;;;4.20;1.67;;;;;;;11.68;70.19;99771.19;5083247;28;20040;-65
2022/09/06 11:10:20;;;;;;;2.20;1.40;;;;;;;11.68;69.28;99773.78;5083502;28;20024;-63
2022/09/06 11:12:48;;;;;;;2.10;1.40;;;;;;;11.71;69.83;99776.28;5082970;28;20044;-63
2022/09/06 11:15:16;;;;;;;1.83;1.40;;;;;;;11.68;69.78;99772.03;5082234;28;20024;-64
2022/09/06 11:18:18;;;;;;;3.88;2.38;;;;;;;11.30;69.88;99721.97;5083572;28;20044;-64
2022/09/06 11:21:05;;;;;;;2.00;1.73;;;;;;;11.62;69.62;99758.38;5075678;28;20060;-63
2022/09/06 11:23:53;;;;;;;5.25;2.33;;;;;;;11.78;69.42;99771.81;5083018;28;20025;-64
2022/09/06 11:26:40;;;;;;;5.28;2.00;;;;;;;11.74;69.67;99760.66;5083040;28;20220;-63
2022/09/06 11:29:15;;;;;;;5.82;1.95;;;;;;;11.68;69.70;99771.19;5082996;28;20032;-63
2022/09/06 11:32:23;;;;;;;2.63;2.05;;;;;;;11.46;69.04;99713.78;5100423;28;20027;-63
2022/09/06 11:34:57;;;;;;;2.72;1.77;;;;;;;11.57;70.58;99732.53;5084319;28;20020;-64
2022/09/06 11:37:27;;;;;;;2.90;1.85;;;;;;;11.70;69.93;99748.63;5082729;28;20038;-64
2022/09/06 11:40:24;;;;;;;4.60;2.05;;;;;;;11.74;70.89;99768.44;5082815;28;20033;-63
2022/09/06 11:42:49;;;;;;;4.63;2.00;;;;;;;11.80;71.11;99765.72;5082642;28;20043;-64
2022/09/06 11:45:37;;;;;;;4.00;2.10;;;;;;;11.61;70.55;99759.25;5082705;28;20048;-64
2022/09/06 11:48:27;;;;;;;1.90;1.67;;;;;;;11.86;70.80;99759.50;5082887;28;20025;-63
2022/09/06 11:50:53;;;;;;;2.88;2.08;;;;;;;11.89;71.04;99756.81;5081561;28;20040;-64
2022/09/06 11:53:21;;;;;;;5.25;2.35;;;;;;;12.02;72.07;99765.19;5082529;28;20029;-64